sensor_id;sensor_type;location;lat;lon;timestamp;noise_LAeq;noise_LA_min;noise_LA_max;noise_LA01;noise_LA95
60503;Laerm;51448;51.660;5.824;2022-11-30T00:01:23;42.43;29.52;52.69;;
60503;Laerm;51448;51.660;5.824;2022-11-30T00:03:55;42.12;29.42;52.88;;
60503;Laerm;51448;51.660;5.824;2022-11-30T00:06:24;42.39;29.80;53.29;;
60503;Laerm;51448;51.660;5.824;2022-11-30T00:08:56;42.39;29.71;52.63;;
60503;Laerm;51448;51.660;5.824;2022-11-30T00:11:26;42.13;29.17;52.68;;
60503;Laerm;51448;51.660;5.824;2022-11-30T00:13:55;42.24;29.70;53.68;;
60503;Laerm;51448;51.660;5.824;2022-11-30T00:16:22;42.24;29.53;52.74;;
60503;Laerm;51448;51.660;5.824;2022-11-30T00:18:50;42.16;29.68;52.27;;
60503;Laerm;51448;51.660;5.824;2022-11-30T00:21:18;42.42;29.51;52.67;;
60503;Laerm;51448;51.660;5.824;2022-11-30T00:23:47;42.13;29.32;52.53;;
60503;Laerm;51448;51.660;5.824;2022-11-30T00:26:18;42.42;29.74;53.38;;
60503;Laerm;51448;51.660;5.824;2022-11-30T00:28:45;41.89;29.22;52.86;;
60503;Laerm;51448;51.660;5.824;2022-11-30T00:31:17;42.27;29.27;52.95;;
60503;Laerm;51448;51.660;5.824;2022-11-30T00:33:45;42.12;29.24;53.28;;
60503;Laerm;51448;51.660;5.824;2022-11-30T00:36:16;42.28;29.20;52.69;;
60503;Laerm;51448;51.660;5.824;2022-11-30T00:38:45;41.83;29.32;53.71;;
60503;Laerm;51448;51.660;5.824;2022-11-30T00:41:13;41.23;29.30;51.34;;
60503;Laerm;51448;51.660;5.824;2022-11-30T00:43:41;42.32;29.72;53.30;;
60503;Laerm;51448;51.660;5.824;2022-11-30T00:46:09;42.12;29.78;53.07;;
60503;Laerm;51448;51.660;5.824;2022-11-30T00:48:38;42.05;29.60;52.89;;
60503;Laerm;51448;51.660;5.824;2022-11-30T00:51:08;42.10;29.54;54.74;;
60503;Laerm;51448;51.660;5.824;2022-11-30T00:53:37;42.30;29.73;52.44;;
60503;Laerm;51448;51.660;5.824;2022-11-30T00:56:06;42.18;29.43;52.43;;
60503;Laerm;51448;51.660;5.824;2022-11-30T00:58:34;42.25;29.32;52.56;;
60503;Laerm;51448;51.660;5.824;2022-11-30T01:01:01;41.98;29.46;52.13;;
60503;Laerm;51448;51.660;5.824;2022-11-30T01:03:29;42.16;29.66;52.61;;
60503;Laerm;51448;51.660;5.824;2022-11-30T01:06:02;42.04;29.59;52.52;;
60503;Laerm;51448;51.660;5.824;2022-11-30T01:08:31;42.22;29.51;53.06;;
60503;Laerm;51448;51.660;5.824;2022-11-30T01:11:11;41.89;29.30;57.94;;
60503;Laerm;51448;51.660;5.824;2022-11-30T01:13:39;42.18;29.41;53.06;;
60503;Laerm;51448;51.660;5.824;2022-11-30T01:16:14;42.13;29.20;52.75;;
60503;Laerm;51448;51.660;5.824;2022-11-30T01:18:43;42.16;29.28;52.60;;
60503;Laerm;51448;51.660;5.824;2022-11-30T01:21:15;42.00;29.24;52.73;;
60503;Laerm;51448;51.660;5.824;2022-11-30T01:23:44;42.14;29.41;52.90;;
60503;Laerm;51448;51.660;5.824;2022-11-30T01:26:13;41.66;29.47;51.99;;
60503;Laerm;51448;51.660;5.824;2022-11-30T01:28:41;42.26;29.35;52.61;;
60503;Laerm;51448;51.660;5.824;2022-11-30T01:31:13;42.70;29.18;53.85;;
60503;Laerm;51448;51.660;5.824;2022-11-30T01:33:41;42.54;29.37;52.64;;
60503;Laerm;51448;51.660;5.824;2022-11-30T01:36:19;42.62;29.16;53.19;;
60503;Laerm;51448;51.660;5.824;2022-11-30T01:38:53;42.21;29.74;52.85;;
60503;Laerm;51448;51.660;5.824;2022-11-30T01:41:29;42.78;29.63;53.51;;
60503;Laerm;51448;51.660;5.824;2022-11-30T01:49:29;42.42;29.16;55.07;;
60503;Laerm;51448;51.660;5.824;2022-11-30T01:52:16;42.47;29.23;53.16;;
60503;Laerm;51448;51.660;5.824;2022-11-30T01:55:05;42.43;28.49;54.22;;
60503;Laerm;51448;51.660;5.824;2022-11-30T01:57:51;42.54;29.25;53.54;;
60503;Laerm;51448;51.660;5.824;2022-11-30T02:00:21;46.03;29.16;58.79;;
60503;Laerm;51448;51.660;5.824;2022-11-30T02:03:20;42.56;29.30;53.52;;
60503;Laerm;51448;51.660;5.824;2022-11-30T02:05:49;45.56;29.65;58.89;;
60503;Laerm;51448;51.660;5.824;2022-11-30T02:08:18;42.47;29.16;53.13;;
60503;Laerm;51448;51.660;5.824;2022-11-30T02:10:53;42.27;29.20;52.88;;
60503;Laerm;51448;51.660;5.824;2022-11-30T02:16:32;42.21;29.05;52.86;;
60503;Laerm;51448;51.660;5.824;2022-11-30T02:25:08;41.47;28.79;55.03;;
60503;Laerm;51448;51.660;5.824;2022-11-30T02:30:21;42.78;29.13;55.35;;
60503;Laerm;51448;51.660;5.824;2022-11-30T02:33:02;42.54;28.95;53.12;;
60503;Laerm;51448;51.660;5.824;2022-11-30T02:35:32;31.06;29.17;46.57;;
60503;Laerm;51448;51.660;5.824;2022-11-30T02:38:02;44.27;29.05;56.66;;
60503;Laerm;51448;51.660;5.824;2022-11-30T02:40:31;43.33;29.22;56.20;;
60503;Laerm;51448;51.660;5.824;2022-11-30T02:43:03;42.92;29.17;54.17;;
60503;Laerm;51448;51.660;5.824;2022-11-30T02:48:55;43.03;29.10;52.98;;
60503;Laerm;51448;51.660;5.824;2022-11-30T02:51:28;45.45;29.26;57.85;;
60503;Laerm;51448;51.660;5.824;2022-11-30T02:53:57;43.07;29.32;53.88;;
60503;Laerm;51448;51.660;5.824;2022-11-30T02:56:25;43.19;29.16;55.79;;
60503;Laerm;51448;51.660;5.824;2022-11-30T02:58:53;42.82;29.36;53.00;;
60503;Laerm;51448;51.660;5.824;2022-11-30T03:01:21;42.78;29.34;52.97;;
60503;Laerm;51448;51.660;5.824;2022-11-30T03:03:48;42.79;29.52;53.08;;
60503;Laerm;51448;51.660;5.824;2022-11-30T03:06:16;42.80;29.21;53.46;;
60503;Laerm;51448;51.660;5.824;2022-11-30T03:08:43;42.75;29.69;57.38;;
60503;Laerm;51448;51.660;5.824;2022-11-30T03:11:10;42.97;30.27;52.91;;
60503;Laerm;51448;51.660;5.824;2022-11-30T03:13:38;42.96;31.92;54.05;;
60503;Laerm;51448;51.660;5.824;2022-11-30T03:16:08;42.80;30.94;53.00;;
60503;Laerm;51448;51.660;5.824;2022-11-30T03:18:35;43.43;29.52;56.00;;
60503;Laerm;51448;51.660;5.824;2022-11-30T03:21:11;43.84;29.16;56.64;;
60503;Laerm;51448;51.660;5.824;2022-11-30T03:23:39;45.98;29.76;57.95;;
60503;Laerm;51448;51.660;5.824;2022-11-30T03:26:08;42.97;29.97;54.65;;
60503;Laerm;51448;51.660;5.824;2022-11-30T03:28:36;42.95;29.79;54.33;;
60503;Laerm;51448;51.660;5.824;2022-11-30T03:31:04;42.87;30.24;52.97;;
60503;Laerm;51448;51.660;5.824;2022-11-30T03:33:31;42.77;30.01;53.12;;
60503;Laerm;51448;51.660;5.824;2022-11-30T03:36:05;42.61;30.16;52.86;;
60503;Laerm;51448;51.660;5.824;2022-11-30T03:38:33;42.91;30.31;53.12;;
60503;Laerm;51448;51.660;5.824;2022-11-30T03:41:06;42.62;30.28;52.92;;
60503;Laerm;51448;51.660;5.824;2022-11-30T03:43:33;43.02;29.91;54.20;;
60503;Laerm;51448;51.660;5.824;2022-11-30T03:46:02;44.57;31.16;56.63;;
60503;Laerm;51448;51.660;5.824;2022-11-30T03:48:29;42.64;30.19;52.81;;
60503;Laerm;51448;51.660;5.824;2022-11-30T03:50:57;42.85;30.15;53.12;;
60503;Laerm;51448;51.660;5.824;2022-11-30T03:53:25;44.70;30.03;59.02;;
60503;Laerm;51448;51.660;5.824;2022-11-30T03:55:56;42.53;30.26;52.96;;
60503;Laerm;51448;51.660;5.824;2022-11-30T03:58:24;42.84;30.76;53.94;;
60503;Laerm;51448;51.660;5.824;2022-11-30T04:01:13;42.63;30.84;53.11;;
60503;Laerm;51448;51.660;5.824;2022-11-30T04:03:42;43.03;31.62;52.90;;
60503;Laerm;51448;51.660;5.824;2022-11-30T04:06:11;42.77;30.39;55.57;;
60503;Laerm;51448;51.660;5.824;2022-11-30T04:08:39;43.17;30.67;53.68;;
60503;Laerm;51448;51.660;5.824;2022-11-30T04:11:07;45.67;31.46;58.78;;
60503;Laerm;51448;51.660;5.824;2022-11-30T04:13:37;42.77;30.95;52.95;;
60503;Laerm;51448;51.660;5.824;2022-11-30T04:16:06;42.78;30.79;52.79;;
60503;Laerm;51448;51.660;5.824;2022-11-30T04:18:35;42.69;31.16;52.71;;
60503;Laerm;51448;51.660;5.824;2022-11-30T04:21:04;43.22;32.05;57.65;;
60503;Laerm;51448;51.660;5.824;2022-11-30T04:23:36;44.52;31.72;58.10;;
60503;Laerm;51448;51.660;5.824;2022-11-30T04:26:12;45.05;32.45;55.51;;
60503;Laerm;51448;51.660;5.824;2022-11-30T04:28:40;46.28;32.18;62.53;;
60503;Laerm;51448;51.660;5.824;2022-11-30T04:31:09;46.13;31.25;59.73;;
60503;Laerm;51448;51.660;5.824;2022-11-30T04:33:37;42.90;31.37;53.66;;
60503;Laerm;51448;51.660;5.824;2022-11-30T04:36:06;43.58;31.11;56.08;;
60503;Laerm;51448;51.660;5.824;2022-11-30T04:38:35;45.23;31.47;56.47;;
60503;Laerm;51448;51.660;5.824;2022-11-30T04:41:07;43.01;31.92;53.08;;
60503;Laerm;51448;51.660;5.824;2022-11-30T04:43:36;42.84;32.34;53.25;;
60503;Laerm;51448;51.660;5.824;2022-11-30T04:46:05;43.37;32.53;53.16;;
60503;Laerm;51448;51.660;5.824;2022-11-30T04:48:33;48.03;32.00;62.70;;
60503;Laerm;51448;51.660;5.824;2022-11-30T04:51:07;46.86;31.83;60.89;;
60503;Laerm;51448;51.660;5.824;2022-11-30T04:53:36;43.26;32.33;53.10;;
60503;Laerm;51448;51.660;5.824;2022-11-30T04:56:10;49.47;31.74;64.98;;
60503;Laerm;51448;51.660;5.824;2022-11-30T04:58:38;45.29;31.48;57.91;;
60503;Laerm;51448;51.660;5.824;2022-11-30T05:01:06;46.04;32.43;57.06;;
60503;Laerm;51448;51.660;5.824;2022-11-30T05:03:34;48.65;32.66;60.79;;
60503;Laerm;51448;51.660;5.824;2022-11-30T05:06:02;47.96;33.16;60.97;;
60503;Laerm;51448;51.660;5.824;2022-11-30T05:08:30;43.51;33.25;53.03;;
60503;Laerm;51448;51.660;5.824;2022-11-30T05:10:57;46.59;33.58;59.02;;
60503;Laerm;51448;51.660;5.824;2022-11-30T05:13:25;47.33;33.06;58.87;;
60503;Laerm;51448;51.660;5.824;2022-11-30T05:15:53;48.32;33.01;60.13;;
60503;Laerm;51448;51.660;5.824;2022-11-30T05:18:21;48.04;33.76;57.78;;
60503;Laerm;51448;51.660;5.824;2022-11-30T05:20:50;49.84;33.32;63.28;;
60503;Laerm;51448;51.660;5.824;2022-11-30T05:23:19;46.53;33.73;59.87;;
60503;Laerm;51448;51.660;5.824;2022-11-30T05:25:48;47.32;35.25;60.84;;
60503;Laerm;51448;51.660;5.824;2022-11-30T05:28:15;46.76;33.60;57.13;;
60503;Laerm;51448;51.660;5.824;2022-11-30T05:30:43;48.95;35.23;59.06;;
60503;Laerm;51448;51.660;5.824;2022-11-30T05:33:11;49.48;33.86;61.89;;
60503;Laerm;51448;51.660;5.824;2022-11-30T05:35:38;47.41;34.45;58.95;;
60503;Laerm;51448;51.660;5.824;2022-11-30T05:38:06;48.07;34.59;61.56;;
60503;Laerm;51448;51.660;5.824;2022-11-30T05:40:34;48.22;35.92;59.55;;
60503;Laerm;51448;51.660;5.824;2022-11-30T05:43:04;49.67;35.02;63.82;;
60503;Laerm;51448;51.660;5.824;2022-11-30T05:45:32;50.65;35.36;61.32;;
60503;Laerm;51448;51.660;5.824;2022-11-30T05:47:59;50.32;37.01;64.00;;
60503;Laerm;51448;51.660;5.824;2022-11-30T05:50:27;49.12;35.62;60.79;;
60503;Laerm;51448;51.660;5.824;2022-11-30T05:52:55;48.37;36.28;59.74;;
60503;Laerm;51448;51.660;5.824;2022-11-30T05:55:23;51.58;38.11;62.46;;
60503;Laerm;51448;51.660;5.824;2022-11-30T05:57:52;52.12;38.59;59.91;;
60503;Laerm;51448;51.660;5.824;2022-11-30T06:00:20;48.40;36.82;57.42;;
60503;Laerm;51448;51.660;5.824;2022-11-30T06:02:54;50.41;37.76;58.06;;
60503;Laerm;51448;51.660;5.824;2022-11-30T06:05:22;49.33;35.75;62.12;;
60503;Laerm;51448;51.660;5.824;2022-11-30T06:07:50;54.38;38.23;66.15;;
60503;Laerm;51448;51.660;5.824;2022-11-30T06:10:18;49.02;37.13;56.62;;
60503;Laerm;51448;51.660;5.824;2022-11-30T06:12:46;47.10;36.55;56.93;;
60503;Laerm;51448;51.660;5.824;2022-11-30T06:15:14;51.18;39.05;60.98;;
60503;Laerm;51448;51.660;5.824;2022-11-30T06:17:42;49.26;37.68;65.17;;
60503;Laerm;51448;51.660;5.824;2022-11-30T06:20:10;51.64;39.64;62.24;;
60503;Laerm;51448;51.660;5.824;2022-11-30T06:22:37;47.46;36.62;56.93;;
60503;Laerm;51448;51.660;5.824;2022-11-30T06:25:05;50.66;36.58;61.74;;
60503;Laerm;51448;51.660;5.824;2022-11-30T06:27:32;48.80;38.27;59.34;;
60503;Laerm;51448;51.660;5.824;2022-11-30T06:30:00;50.45;41.13;59.43;;
60503;Laerm;51448;51.660;5.824;2022-11-30T06:32:28;51.56;38.76;62.74;;
60503;Laerm;51448;51.660;5.824;2022-11-30T06:34:57;50.23;38.34;62.55;;
60503;Laerm;51448;51.660;5.824;2022-11-30T06:37:25;53.92;36.82;78.86;;
60503;Laerm;51448;51.660;5.824;2022-11-30T06:39:52;52.65;38.73;67.66;;
60503;Laerm;51448;51.660;5.824;2022-11-30T06:42:36;52.76;38.12;68.87;;
60503;Laerm;51448;51.660;5.824;2022-11-30T06:45:05;62.14;39.14;85.00;;
60503;Laerm;51448;51.660;5.824;2022-11-30T06:47:33;58.12;40.24;72.26;;
60503;Laerm;51448;51.660;5.824;2022-11-30T06:50:00;55.61;39.29;80.62;;
60503;Laerm;51448;51.660;5.824;2022-11-30T06:52:31;54.32;40.78;67.26;;
60503;Laerm;51448;51.660;5.824;2022-11-30T06:54:59;58.60;42.51;71.50;;
60503;Laerm;51448;51.660;5.824;2022-11-30T06:57:29;56.19;38.42;70.15;;
60503;Laerm;51448;51.660;5.824;2022-11-30T07:00:01;50.79;40.29;60.80;;
60503;Laerm;51448;51.660;5.824;2022-11-30T07:02:29;56.96;37.51;72.76;;
60503;Laerm;51448;51.660;5.824;2022-11-30T07:04:57;59.22;37.90;72.96;;
60503;Laerm;51448;51.660;5.824;2022-11-30T07:07:27;59.55;40.65;70.75;;
60503;Laerm;51448;51.660;5.824;2022-11-30T07:09:55;52.81;40.45;75.73;;
60503;Laerm;51448;51.660;5.824;2022-11-30T07:12:24;53.68;39.03;65.17;;
60503;Laerm;51448;51.660;5.824;2022-11-30T07:14:52;52.87;38.82;72.27;;
60503;Laerm;51448;51.660;5.824;2022-11-30T07:17:22;48.72;37.24;58.52;;
60503;Laerm;51448;51.660;5.824;2022-11-30T07:19:50;50.50;36.73;70.26;;
60503;Laerm;51448;51.660;5.824;2022-11-30T07:22:18;48.94;38.28;57.96;;
60503;Laerm;51448;51.660;5.824;2022-11-30T07:25:04;50.78;37.72;59.88;;
60503;Laerm;51448;51.660;5.824;2022-11-30T07:27:50;50.45;38.49;61.92;;
60503;Laerm;51448;51.660;5.824;2022-11-30T07:30:18;53.69;38.66;72.82;;
60503;Laerm;51448;51.660;5.824;2022-11-30T07:32:45;52.59;40.47;69.84;;
60503;Laerm;51448;51.660;5.824;2022-11-30T07:35:13;50.13;39.90;60.30;;
60503;Laerm;51448;51.660;5.824;2022-11-30T07:37:40;52.28;37.44;68.07;;
60503;Laerm;51448;51.660;5.824;2022-11-30T07:40:08;54.74;38.30;73.66;;
60503;Laerm;51448;51.660;5.824;2022-11-30T07:42:36;51.55;38.99;66.51;;
60503;Laerm;51448;51.660;5.824;2022-11-30T07:45:07;54.53;38.31;67.20;;
60503;Laerm;51448;51.660;5.824;2022-11-30T07:47:35;51.09;37.85;60.37;;
60503;Laerm;51448;51.660;5.824;2022-11-30T07:50:02;58.09;40.19;87.99;;
60503;Laerm;51448;51.660;5.824;2022-11-30T07:52:30;51.96;39.86;70.89;;
60503;Laerm;51448;51.660;5.824;2022-11-30T07:54:57;59.63;38.72;87.92;;
60503;Laerm;51448;51.660;5.824;2022-11-30T07:57:26;58.07;36.92;86.56;;
60503;Laerm;51448;51.660;5.824;2022-11-30T07:59:53;52.05;39.21;65.08;;
60503;Laerm;51448;51.660;5.824;2022-11-30T08:02:21;51.60;37.08;63.35;;
60503;Laerm;51448;51.660;5.824;2022-11-30T08:04:49;48.59;37.28;68.89;;
60503;Laerm;51448;51.660;5.824;2022-11-30T08:07:17;50.07;38.00;64.07;;
60503;Laerm;51448;51.660;5.824;2022-11-30T08:09:45;51.39;37.90;65.48;;
60503;Laerm;51448;51.660;5.824;2022-11-30T08:12:12;54.49;37.06;83.50;;
60503;Laerm;51448;51.660;5.824;2022-11-30T08:14:40;52.31;39.95;62.59;;
60503;Laerm;51448;51.660;5.824;2022-11-30T08:17:27;52.48;37.83;66.73;;
60503;Laerm;51448;51.660;5.824;2022-11-30T08:19:55;49.66;37.27;60.97;;
60503;Laerm;51448;51.660;5.824;2022-11-30T08:22:22;49.30;37.41;58.31;;
60503;Laerm;51448;51.660;5.824;2022-11-30T08:24:50;72.02;37.73;99.18;;
60503;Laerm;51448;51.660;5.824;2022-11-30T08:27:17;53.99;36.50;71.58;;
60503;Laerm;51448;51.660;5.824;2022-11-30T08:29:46;49.71;36.49;65.74;;
60503;Laerm;51448;51.660;5.824;2022-11-30T08:32:13;49.84;35.28;63.42;;
60503;Laerm;51448;51.660;5.824;2022-11-30T08:34:41;49.27;36.23;60.63;;
60503;Laerm;51448;51.660;5.824;2022-11-30T08:37:09;47.49;35.53;58.34;;
60503;Laerm;51448;51.660;5.824;2022-11-30T08:39:36;55.03;36.44;68.09;;
60503;Laerm;51448;51.660;5.824;2022-11-30T08:42:04;47.32;35.90;60.40;;
60503;Laerm;51448;51.660;5.824;2022-11-30T08:44:31;51.76;35.58;77.26;;
60503;Laerm;51448;51.660;5.824;2022-11-30T08:46:59;55.72;34.58;82.83;;
60503;Laerm;51448;51.660;5.824;2022-11-30T08:49:26;49.68;36.19;65.84;;
60503;Laerm;51448;51.660;5.824;2022-11-30T08:51:55;51.23;36.55;62.13;;
60503;Laerm;51448;51.660;5.824;2022-11-30T08:54:44;49.00;35.45;63.41;;
60503;Laerm;51448;51.660;5.824;2022-11-30T08:57:19;46.52;35.95;58.01;;
60503;Laerm;51448;51.660;5.824;2022-11-30T08:59:47;45.08;34.80;54.37;;
60503;Laerm;51448;51.660;5.824;2022-11-30T09:02:16;55.59;35.92;69.28;;
60503;Laerm;51448;51.660;5.824;2022-11-30T09:04:47;56.60;34.60;69.22;;
60503;Laerm;51448;51.660;5.824;2022-11-30T09:07:16;50.19;34.16;65.88;;
60503;Laerm;51448;51.660;5.824;2022-11-30T09:09:44;45.54;33.36;59.31;;
60503;Laerm;51448;51.660;5.824;2022-11-30T09:12:11;48.27;34.18;57.18;;
60503;Laerm;51448;51.660;5.824;2022-11-30T09:14:39;51.10;35.10;74.15;;
60503;Laerm;51448;51.660;5.824;2022-11-30T09:17:06;49.54;35.40;70.79;;
60503;Laerm;51448;51.660;5.824;2022-11-30T09:19:34;56.79;35.22;85.56;;
60503;Laerm;51448;51.660;5.824;2022-11-30T09:22:01;55.43;35.67;76.97;;
60503;Laerm;51448;51.660;5.824;2022-11-30T09:24:29;45.82;34.44;59.26;;
60503;Laerm;51448;51.660;5.824;2022-11-30T09:26:56;49.26;33.02;67.89;;
60503;Laerm;51448;51.660;5.824;2022-11-30T09:29:24;48.20;31.70;60.50;;
60503;Laerm;51448;51.660;5.824;2022-11-30T09:31:51;46.51;32.22;56.72;;
60503;Laerm;51448;51.660;5.824;2022-11-30T09:34:19;47.49;32.73;58.14;;
60503;Laerm;51448;51.660;5.824;2022-11-30T09:36:46;48.13;32.67;66.90;;
60503;Laerm;51448;51.660;5.824;2022-11-30T09:39:14;48.95;32.13;63.63;;
60503;Laerm;51448;51.660;5.824;2022-11-30T09:42:12;57.14;31.95;81.39;;
60503;Laerm;51448;51.660;5.824;2022-11-30T09:44:52;47.96;33.32;67.55;;
60503;Laerm;51448;51.660;5.824;2022-11-30T09:50:42;49.33;34.04;72.49;;
60503;Laerm;51448;51.660;5.824;2022-11-30T09:53:39;49.86;34.22;72.29;;
60503;Laerm;51448;51.660;5.824;2022-11-30T09:56:26;48.44;35.08;65.81;;
60503;Laerm;51448;51.660;5.824;2022-11-30T09:59:35;51.43;34.92;66.08;;
60503;Laerm;51448;51.660;5.824;2022-11-30T10:02:15;56.92;36.09;69.86;;
60503;Laerm;51448;51.660;5.824;2022-11-30T10:04:44;52.85;35.61;71.42;;
60503;Laerm;51448;51.660;5.824;2022-11-30T10:10:43;52.95;34.32;69.85;;
60503;Laerm;51448;51.660;5.824;2022-11-30T10:19:53;45.75;34.75;53.53;;
60503;Laerm;51448;51.660;5.824;2022-11-30T10:25:23;47.20;34.94;59.95;;
60503;Laerm;51448;51.660;5.824;2022-11-30T10:28:06;48.26;33.76;59.73;;
60503;Laerm;51448;51.660;5.824;2022-11-30T10:31:02;49.83;33.71;61.45;;
60503;Laerm;51448;51.660;5.824;2022-11-30T10:33:38;48.44;34.01;58.93;;
60503;Laerm;51448;51.660;5.824;2022-11-30T10:36:28;49.00;34.20;64.05;;
60503;Laerm;51448;51.660;5.824;2022-11-30T10:39:04;48.30;38.65;59.34;;
60503;Laerm;51448;51.660;5.824;2022-11-30T10:41:45;43.35;33.08;59.56;;
60503;Laerm;51448;51.660;5.824;2022-11-30T10:44:20;48.45;33.22;63.95;;
60503;Laerm;51448;51.660;5.824;2022-11-30T10:47:02;49.79;34.31;61.81;;
60503;Laerm;51448;51.660;5.824;2022-11-30T10:49:33;47.46;33.85;57.52;;
60503;Laerm;51448;51.660;5.824;2022-11-30T10:52:06;47.90;33.17;58.20;;
60503;Laerm;51448;51.660;5.824;2022-11-30T10:54:35;50.84;34.18;60.29;;
60503;Laerm;51448;51.660;5.824;2022-11-30T10:57:05;51.51;33.69;67.00;;
60503;Laerm;51448;51.660;5.824;2022-11-30T10:59:43;53.45;32.38;84.96;;
60503;Laerm;51448;51.660;5.824;2022-11-30T11:02:43;46.59;32.89;60.38;;
60503;Laerm;51448;51.660;5.824;2022-11-30T11:05:23;48.07;32.83;60.03;;
60503;Laerm;51448;51.660;5.824;2022-11-30T11:08:17;49.44;32.61;75.37;;
60503;Laerm;51448;51.660;5.824;2022-11-30T11:10:48;49.66;33.75;59.21;;
60503;Laerm;51448;51.660;5.824;2022-11-30T11:16:02;46.06;33.65;56.64;;
60503;Laerm;51448;51.660;5.824;2022-11-30T11:18:33;46.69;32.32;61.80;;
60503;Laerm;51448;51.660;5.824;2022-11-30T11:21:20;47.49;33.35;59.85;;
60503;Laerm;51448;51.660;5.824;2022-11-30T11:23:52;46.27;32.40;56.46;;
60503;Laerm;51448;51.660;5.824;2022-11-30T11:26:25;46.89;33.02;58.83;;
60503;Laerm;51448;51.660;5.824;2022-11-30T11:28:56;46.02;32.39;57.36;;
60503;Laerm;51448;51.660;5.824;2022-11-30T11:31:40;47.97;32.60;58.90;;
60503;Laerm;51448;51.660;5.824;2022-11-30T11:34:32;47.17;31.46;58.91;;
60503;Laerm;51448;51.660;5.824;2022-11-30T11:37:18;46.36;31.82;58.47;;
60503;Laerm;51448;51.660;5.824;2022-11-30T11:40:03;46.20;32.88;59.07;;
60503;Laerm;51448;51.660;5.824;2022-11-30T11:42:44;48.94;31.73;61.77;;
60503;Laerm;51448;51.660;5.824;2022-11-30T11:45:24;45.74;31.61;58.31;;
60503;Laerm;51448;51.660;5.824;2022-11-30T11:48:02;45.16;31.93;58.33;;
60503;Laerm;51448;51.660;5.824;2022-11-30T11:50:34;45.62;31.22;55.88;;
60503;Laerm;51448;51.660;5.824;2022-11-30T11:53:40;44.87;32.86;68.64;;
60503;Laerm;51448;51.660;5.824;2022-11-30T11:56:30;49.54;32.86;64.92;;
60503;Laerm;51448;51.660;5.824;2022-11-30T12:05:10;47.15;31.73;63.62;;
60503;Laerm;51448;51.660;5.824;2022-11-30T12:10:54;48.91;33.36;63.43;;
60503;Laerm;51448;51.660;5.824;2022-11-30T12:13:33;48.73;32.08;61.72;;
60503;Laerm;51448;51.660;5.824;2022-11-30T12:21:49;50.94;32.22;74.83;;
60503;Laerm;51448;51.660;5.824;2022-11-30T12:24:56;49.45;32.33;60.80;;
60503;Laerm;51448;51.660;5.824;2022-11-30T12:28:03;47.71;32.59;60.08;;
60503;Laerm;51448;51.660;5.824;2022-11-30T12:31:00;53.16;32.21;80.67;;
60503;Laerm;51448;51.660;5.824;2022-11-30T12:33:44;48.71;32.36;58.94;;
60503;Laerm;51448;51.660;5.824;2022-11-30T12:39:39;48.43;33.02;70.14;;
60503;Laerm;51448;51.660;5.824;2022-11-30T12:45:27;49.05;32.56;60.43;;
60503;Laerm;51448;51.660;5.824;2022-11-30T12:51:30;49.91;33.42;63.87;;
60503;Laerm;51448;51.660;5.824;2022-11-30T12:54:41;48.96;31.44;69.22;;
60503;Laerm;51448;51.660;5.824;2022-11-30T12:57:33;49.91;32.97;65.06;;
60503;Laerm;51448;51.660;5.824;2022-11-30T13:00:12;50.24;31.80;64.40;;
60503;Laerm;51448;51.660;5.824;2022-11-30T13:03:31;47.30;31.20;56.48;;
60503;Laerm;51448;51.660;5.824;2022-11-30T13:06:11;51.30;32.56;66.12;;
60503;Laerm;51448;51.660;5.824;2022-11-30T13:09:24;47.32;32.07;62.24;;
60503;Laerm;51448;51.660;5.824;2022-11-30T13:12:05;55.30;35.09;68.49;;
60503;Laerm;51448;51.660;5.824;2022-11-30T13:14:35;46.18;32.61;62.87;;
60503;Laerm;51448;51.660;5.824;2022-11-30T13:17:14;50.50;33.93;72.01;;
60503;Laerm;51448;51.660;5.824;2022-11-30T13:20:13;59.20;32.96;78.97;;
60503;Laerm;51448;51.660;5.824;2022-11-30T13:22:57;57.70;32.72;78.87;;
60503;Laerm;51448;51.660;5.824;2022-11-30T13:25:58;51.19;32.88;75.03;;
60503;Laerm;51448;51.660;5.824;2022-11-30T13:28:53;50.46;32.84;65.93;;
60503;Laerm;51448;51.660;5.824;2022-11-30T13:31:38;48.95;33.48;64.65;;
60503;Laerm;51448;51.660;5.824;2022-11-30T13:34:28;48.72;34.18;60.48;;
60503;Laerm;51448;51.660;5.824;2022-11-30T13:39:52;45.11;32.41;54.06;;
60503;Laerm;51448;51.660;5.824;2022-11-30T13:47:53;45.86;31.83;59.25;;
60503;Laerm;51448;51.660;5.824;2022-11-30T13:50:36;49.56;32.94;67.83;;
60503;Laerm;51448;51.660;5.824;2022-11-30T13:53:23;66.76;32.59;85.20;;
60503;Laerm;51448;51.660;5.824;2022-11-30T13:55:56;47.13;32.77;60.67;;
60503;Laerm;51448;51.660;5.824;2022-11-30T13:58:25;51.36;33.55;60.80;;
60503;Laerm;51448;51.660;5.824;2022-11-30T14:03:30;58.97;32.46;78.20;;
60503;Laerm;51448;51.660;5.824;2022-11-30T14:06:04;51.08;35.21;67.97;;
60503;Laerm;51448;51.660;5.824;2022-11-30T14:08:37;47.25;32.70;57.18;;
60503;Laerm;51448;51.660;5.824;2022-11-30T14:13:45;54.01;39.18;65.22;;
60503;Laerm;51448;51.660;5.824;2022-11-30T14:16:27;50.32;34.47;64.77;;
60503;Laerm;51448;51.660;5.824;2022-11-30T14:18:56;48.18;34.12;59.57;;
60503;Laerm;51448;51.660;5.824;2022-11-30T14:21:34;47.18;34.09;65.54;;
60503;Laerm;51448;51.660;5.824;2022-11-30T14:24:16;48.86;34.09;64.27;;
60503;Laerm;51448;51.660;5.824;2022-11-30T14:26:50;47.93;33.39;64.62;;
60503;Laerm;51448;51.660;5.824;2022-11-30T14:29:29;49.12;35.07;60.79;;
60503;Laerm;51448;51.660;5.824;2022-11-30T14:32:17;50.67;34.54;62.10;;
60503;Laerm;51448;51.660;5.824;2022-11-30T14:35:00;49.09;34.00;62.90;;
60503;Laerm;51448;51.660;5.824;2022-11-30T14:37:54;61.63;34.97;83.62;;
60503;Laerm;51448;51.660;5.824;2022-11-30T14:40:26;59.42;34.84;83.57;;
60503;Laerm;51448;51.660;5.824;2022-11-30T14:43:00;50.37;36.21;64.88;;
60503;Laerm;51448;51.660;5.824;2022-11-30T14:45:32;49.64;35.01;71.59;;
60503;Laerm;51448;51.660;5.824;2022-11-30T14:50:31;50.95;34.76;62.63;;
60503;Laerm;51448;51.660;5.824;2022-11-30T14:56:26;45.15;35.24;55.37;;
60503;Laerm;51448;51.660;5.824;2022-11-30T15:02:20;48.62;34.88;63.46;;
60503;Laerm;51448;51.660;5.824;2022-11-30T15:04:51;51.08;33.79;69.56;;
60503;Laerm;51448;51.660;5.824;2022-11-30T15:07:21;48.37;33.90;69.76;;
60503;Laerm;51448;51.660;5.824;2022-11-30T15:09:56;47.83;33.86;68.07;;
60503;Laerm;51448;51.660;5.824;2022-11-30T15:12:26;48.93;32.70;74.67;;
60503;Laerm;51448;51.660;5.824;2022-11-30T15:17:29;47.80;33.39;68.20;;
60503;Laerm;51448;51.660;5.824;2022-11-30T15:19:56;50.25;34.54;63.07;;
60503;Laerm;51448;51.660;5.824;2022-11-30T15:22:24;50.41;35.34;63.19;;
60503;Laerm;51448;51.660;5.824;2022-11-30T15:24:51;51.08;35.20;63.01;;
60503;Laerm;51448;51.660;5.824;2022-11-30T15:27:22;60.94;35.71;79.85;;
60503;Laerm;51448;51.660;5.824;2022-11-30T15:29:58;49.90;35.66;61.82;;
60503;Laerm;51448;51.660;5.824;2022-11-30T15:32:27;64.21;36.55;80.82;;
60503;Laerm;51448;51.660;5.824;2022-11-30T15:35:00;51.07;36.40;63.63;;
60503;Laerm;51448;51.660;5.824;2022-11-30T15:37:36;50.13;34.88;64.03;;
60503;Laerm;51448;51.660;5.824;2022-11-30T15:40:14;65.32;36.24;83.39;;
60503;Laerm;51448;51.660;5.824;2022-11-30T15:42:47;50.13;35.88;66.78;;
60503;Laerm;51448;51.660;5.824;2022-11-30T15:45:26;52.92;34.91;78.87;;
60503;Laerm;51448;51.660;5.824;2022-11-30T15:47:56;50.03;35.21;69.66;;